createdAt,value
2023-03-11T09:08:48.946Z,57.13
2023-03-11T09:11:18.903Z,56.50
2023-03-11T09:13:45.962Z,55.74
2023-03-11T09:16:15.426Z,55.08
2023-03-11T09:18:43.147Z,55.44
2023-03-11T09:21:11.040Z,56.88
2023-03-11T09:23:43.600Z,56.85
2023-03-11T09:26:12.288Z,54.67
2023-03-11T09:28:40.865Z,54.85
2023-03-11T09:31:08.025Z,55.49
2023-03-11T09:33:42.644Z,53.92
2023-03-11T09:36:14.027Z,54.39
2023-03-11T09:38:41.947Z,56.05
2023-03-11T09:41:16.904Z,55.45
2023-03-11T09:43:56.005Z,55.73
2023-03-11T09:46:48.010Z,55.99
2023-03-11T09:49:42.789Z,55.50
2023-03-11T09:52:15.313Z,56.49
2023-03-11T09:54:47.058Z,55.66
2023-03-11T09:57:25.358Z,56.36
2023-03-11T09:59:52.740Z,55.40
2023-03-11T10:02:22.859Z,55.27
2023-03-11T10:05:04.378Z,55.54
2023-03-11T10:07:42.884Z,53.76
2023-03-11T10:10:17.808Z,53.96
2023-03-11T10:13:00.377Z,54.76
2023-03-11T10:15:54.104Z,54.93
2023-03-11T10:19:01.041Z,53.45
2023-03-11T10:21:46.146Z,52.45
2023-03-11T10:24:34.790Z,51.83
2023-03-11T10:27:08.773Z,53.13
2023-03-11T10:30:05.180Z,51.85
2023-03-11T10:32:50.835Z,52.21
2023-03-11T10:35:22.295Z,53.19
2023-03-11T10:38:15.770Z,53.10
2023-03-11T10:40:45.296Z,53.12
2023-03-11T10:43:16.230Z,53.02
2023-03-11T10:45:45.933Z,52.88
2023-03-11T10:48:18.233Z,53.05
2023-03-11T10:51:12.457Z,52.69
2023-03-11T10:53:48.641Z,50.93
2023-03-11T10:56:36.039Z,52.24
2023-03-11T10:59:06.200Z,52.21
2023-03-11T11:01:34.215Z,53.37
2023-03-11T11:04:02.262Z,51.35
2023-03-11T11:06:36.805Z,50.34
2023-03-11T11:09:20.477Z,51.26
2023-03-11T11:12:05.290Z,52.75
2023-03-11T11:14:52.000Z,51.50
2023-03-11T11:17:34.253Z,50.79
2023-03-11T11:20:13.284Z,51.77
2023-03-11T11:22:52.817Z,51.93
2023-03-11T11:25:33.088Z,51.79
2023-03-11T11:28:02.893Z,52.99
2023-03-11T11:30:30.217Z,52.74
2023-03-11T11:33:14.776Z,53.57
2023-03-11T11:35:53.176Z,52.52
2023-03-11T11:38:24.605Z,53.00
2023-03-11T11:40:53.701Z,52.33
2023-03-11T11:43:32.666Z,53.85
2023-03-11T11:46:06.551Z,53.25
2023-03-11T11:49:11.345Z,52.83
2023-03-11T11:51:44.726Z,51.51
2023-03-11T11:54:36.641Z,52.09
2023-03-11T11:57:16.942Z,51.91
2023-03-11T11:59:44.569Z,50.91
2023-03-11T12:02:27.113Z,51.51
2023-03-11T12:05:03.502Z,51.82
2023-03-11T12:07:46.726Z,49.41
2023-03-11T12:10:36.321Z,50.23
2023-03-11T12:13:34.440Z,49.75
2023-03-11T12:16:04.588Z,50.09
2023-03-11T12:19:12.211Z,52.63
2023-03-11T12:21:56.010Z,52.54
2023-03-11T12:24:47.923Z,53.41
2023-03-11T12:27:33.121Z,54.77
2023-03-11T12:30:16.211Z,55.61
2023-03-11T12:32:58.125Z,54.35
2023-03-11T12:35:28.768Z,54.34
2023-03-11T12:38:05.193Z,52.82
2023-03-11T12:41:00.288Z,54.04
2023-03-11T12:43:36.582Z,53.40
2023-03-11T12:46:10.907Z,52.38
2023-03-11T12:48:44.559Z,52.13
2023-03-11T12:51:27.494Z,52.68
2023-03-11T12:53:56.478Z,53.65
2023-03-11T12:56:30.701Z,51.22
2023-03-11T12:59:12.730Z,52.89
2023-03-11T13:01:59.242Z,50.70
2023-03-11T13:05:04.865Z,51.05
2023-03-11T13:07:41.753Z,49.73
2023-03-11T13:10:20.548Z,50.36
2023-03-11T13:12:48.803Z,52.42
2023-03-11T13:15:19.355Z,51.45
2023-03-11T13:18:15.129Z,50.21
2023-03-11T13:20:42.150Z,50.69
2023-03-11T13:23:12.381Z,50.84
2023-03-11T13:25:44.147Z,50.62
2023-03-11T13:28:32.282Z,49.82
2023-03-11T13:31:04.386Z,51.17
2023-03-11T13:33:43.096Z,51.31
2023-03-11T13:36:19.451Z,51.34
2023-03-11T13:39:09.041Z,48.57
2023-03-11T13:41:42.747Z,49.78
2023-03-11T13:44:35.427Z,48.89
2023-03-11T13:47:16.939Z,46.91
2023-03-11T13:50:06.288Z,49.24
2023-03-11T13:52:37.108Z,49.36
2023-03-11T13:55:30.939Z,48.43
2023-03-11T13:57:58.343Z,48.56
2023-03-11T14:00:28.647Z,49.61
2023-03-11T14:03:02.791Z,48.32
2023-03-11T14:05:46.216Z,50.44
2023-03-11T14:08:24.160Z,50.00
2023-03-11T14:10:56.913Z,49.65
2023-03-11T14:13:26.159Z,49.35
2023-03-11T14:15:56.874Z,48.65
2023-03-11T14:18:33.491Z,49.77
2023-03-11T14:21:02.695Z,48.34
2023-03-11T14:23:49.012Z,48.77
2023-03-11T14:26:32.121Z,49.57
2023-03-11T14:29:07.358Z,49.36
2023-03-11T14:31:38.048Z,49.31
2023-03-11T14:34:15.003Z,49.06
2023-03-11T14:36:45.177Z,49.94
2023-03-11T14:39:23.509Z,52.42
2023-03-11T14:41:53.341Z,54.70
2023-03-11T14:44:22.805Z,54.84
2023-03-11T14:46:51.835Z,55.98
2023-03-11T14:49:23.809Z,56.97
2023-03-11T14:51:58.985Z,57.78
2023-03-11T14:54:31.144Z,58.13
2023-03-11T14:57:23.865Z,58.54
2023-03-11T14:59:52.566Z,56.97
2023-03-11T15:02:43.810Z,58.15
2023-03-11T15:05:48.884Z,59.08
2023-03-11T15:08:22.753Z,60.06
2023-03-11T15:11:19.830Z,57.57
2023-03-11T15:13:52.490Z,58.60
2023-03-11T15:16:29.629Z,57.45
2023-03-11T15:18:57.539Z,56.28
2023-03-11T15:21:25.364Z,57.02
2023-03-11T15:24:02.046Z,56.79
2023-03-11T15:26:33.752Z,56.01
2023-03-11T15:29:06.609Z,55.99
2023-03-11T15:31:38.729Z,55.27
2023-03-11T15:34:19.303Z,55.67
2023-03-11T15:36:49.610Z,53.26
2023-03-11T15:39:21.752Z,54.67
2023-03-11T15:42:07.685Z,53.63
2023-03-11T15:44:41.396Z,52.87
2023-03-11T15:47:17.899Z,52.46
2023-03-11T15:49:45.591Z,52.30
2023-03-11T15:52:13.965Z,52.11
2023-03-11T15:54:41.033Z,52.01
2023-03-11T15:57:21.605Z,50.93
2023-03-11T15:59:48.794Z,49.91
2023-03-11T16:02:22.708Z,49.50
2023-03-11T16:04:50.939Z,49.26
2023-03-11T16:07:21.798Z,49.06
2023-03-11T16:09:56.571Z,48.44
2023-03-11T16:12:25.073Z,48.36
2023-03-11T16:14:51.852Z,45.27
2023-03-11T16:17:19.438Z,44.51
2023-03-11T16:19:49.223Z,43.28
2023-03-11T16:22:24.768Z,45.56
2023-03-11T16:24:54.800Z,44.09
2023-03-11T16:27:21.634Z,44.60
2023-03-11T16:29:48.268Z,44.26
2023-03-11T16:32:15.254Z,44.67
2023-03-11T16:34:42.520Z,44.07
2023-03-11T16:37:15.549Z,43.90
2023-03-11T16:39:42.679Z,43.89
2023-03-11T16:42:09.968Z,43.89
2023-03-11T16:44:39.110Z,43.77
2023-03-11T16:47:06.054Z,46.51
2023-03-11T16:49:34.063Z,45.76
2023-03-11T16:52:04.024Z,45.48
2023-03-11T16:54:31.090Z,45.77
2023-03-11T16:56:58.563Z,46.94
2023-03-11T16:59:26.283Z,45.38
2023-03-11T17:01:53.161Z,45.25
2023-03-11T17:04:20.161Z,46.54
2023-03-11T17:06:46.919Z,46.65
2023-03-11T17:09:14.007Z,46.68
2023-03-11T17:11:41.083Z,46.78
2023-03-11T17:14:16.400Z,45.37
2023-03-11T17:16:45.493Z,44.96
2023-03-11T17:19:13.468Z,45.80
2023-03-11T17:21:40.641Z,46.18
2023-03-11T17:24:08.496Z,46.72
2023-03-11T17:26:38.535Z,47.88
2023-03-11T17:29:05.701Z,47.76
2023-03-11T17:31:33.022Z,48.92
2023-03-11T17:34:00.201Z,49.85
2023-03-11T17:36:27.700Z,47.20
2023-03-11T17:38:54.704Z,49.13
2023-03-11T17:41:23.721Z,49.64
2023-03-11T17:43:51.604Z,50.57
2023-03-11T17:46:20.336Z,49.52
2023-03-11T17:48:49.298Z,50.07
2023-03-11T17:51:22.541Z,51.49
2023-03-11T17:53:50.286Z,51.09
2023-03-11T17:56:18.977Z,49.37
2023-03-11T17:58:46.888Z,51.08
2023-03-11T18:01:17.124Z,50.16
2023-03-11T18:03:44.203Z,50.90
2023-03-11T18:06:12.485Z,51.32
2023-03-11T18:08:39.529Z,50.07
2023-03-11T18:11:18.805Z,50.45
2023-03-11T18:13:46.327Z,50.24
2023-03-11T18:16:14.915Z,51.55
2023-03-11T18:18:43.923Z,51.41
2023-03-11T18:21:14.645Z,51.76
2023-03-11T18:23:42.612Z,50.17
2023-03-11T18:26:11.996Z,52.02
2023-03-11T18:28:39.512Z,50.02
2023-03-11T18:31:18.436Z,50.22
2023-03-11T18:33:49.735Z,51.82
2023-03-11T18:36:18.491Z,51.81
2023-03-11T18:38:46.808Z,52.55
2023-03-11T18:41:13.985Z,51.46
2023-03-11T18:43:41.294Z,51.10
2023-03-11T18:46:11.882Z,52.13
2023-03-11T18:48:39.220Z,52.05
2023-03-11T18:51:08.631Z,51.56
2023-03-11T18:53:36.286Z,50.52
2023-03-11T18:56:10.094Z,51.91
2023-03-11T18:58:36.961Z,51.62
2023-03-11T19:01:14.240Z,50.89
2023-03-11T19:03:43.369Z,51.82
2023-03-11T19:06:12.327Z,52.48
2023-03-11T19:08:39.925Z,51.75
2023-03-11T19:11:12.805Z,52.28
2023-03-11T19:13:46.930Z,51.83
2023-03-11T19:16:17.132Z,50.81
2023-03-11T19:18:44.437Z,48.99
2023-03-11T19:21:13.068Z,50.47
2023-03-11T19:23:40.079Z,50.50
2023-03-11T19:26:08.226Z,51.21
2023-03-11T19:28:35.720Z,51.70
2023-03-11T19:31:03.714Z,52.93
2023-03-11T19:33:31.033Z,52.32
2023-03-11T19:36:00.188Z,52.57
2023-03-11T19:38:28.734Z,51.54
2023-03-11T19:41:03.385Z,52.42
2023-03-11T19:43:30.886Z,54.83
2023-03-11T19:46:00.435Z,51.80
2023-03-11T19:48:28.125Z,52.48
2023-03-11T19:50:55.863Z,52.85
2023-03-11T19:53:23.670Z,54.73
2023-03-11T19:55:53.859Z,54.76
2023-03-11T19:58:23.945Z,54.26
2023-03-11T20:00:54.635Z,53.51
2023-03-11T20:03:22.714Z,53.78
2023-03-11T20:05:56.020Z,53.03
2023-03-11T20:08:25.609Z,52.80
2023-03-11T20:10:53.454Z,53.23
2023-03-11T20:13:21.939Z,53.38
2023-03-11T20:15:49.911Z,54.30
2023-03-11T20:18:18.335Z,54.28
2023-03-11T20:20:45.889Z,53.80
2023-03-11T20:23:13.793Z,54.39
2023-03-11T20:25:41.800Z,55.88
2023-03-11T20:28:09.446Z,55.78
2023-03-11T20:30:38.837Z,53.26
2023-03-11T20:33:07.708Z,53.76
2023-03-11T20:35:34.971Z,54.41
2023-03-11T20:38:03.258Z,53.96
2023-03-11T20:40:30.394Z,53.45
2023-03-11T20:42:59.393Z,52.13
2023-03-11T20:45:26.618Z,51.75
2023-03-11T20:47:54.179Z,54.63
2023-03-11T20:50:22.334Z,54.87
2023-03-11T20:52:49.953Z,54.90
2023-03-11T20:55:17.323Z,54.78
2023-03-11T20:57:44.915Z,55.72
2023-03-11T21:00:12.762Z,54.69
2023-03-11T21:02:42.329Z,55.64
2023-03-11T21:05:10.061Z,54.31
2023-03-11T21:07:37.289Z,53.72
2023-03-11T21:10:07.758Z,53.12
2023-03-11T21:12:35.744Z,51.41
2023-03-11T21:15:03.917Z,51.13
2023-03-11T21:17:31.011Z,49.73
2023-03-11T21:19:58.078Z,49.72
2023-03-11T21:22:25.306Z,51.13
2023-03-11T21:24:54.365Z,51.60
2023-03-11T21:27:26.506Z,51.35
2023-03-11T21:29:57.289Z,51.35
2023-03-11T21:32:26.763Z,51.07
2023-03-11T21:34:59.494Z,52.93
2023-03-11T21:37:28.825Z,54.27
2023-03-11T21:39:56.262Z,54.94
2023-03-11T21:42:23.503Z,52.36
2023-03-11T21:44:51.574Z,52.15
2023-03-11T21:47:19.510Z,54.48
2023-03-11T21:49:46.996Z,55.15
2023-03-11T21:52:13.920Z,56.43
2023-03-11T21:54:41.060Z,56.95
2023-03-11T21:57:08.207Z,56.80
2023-03-11T21:59:35.087Z,56.72
2023-03-11T22:02:03.262Z,55.64
2023-03-11T22:04:31.583Z,54.37
2023-03-11T22:06:59.120Z,52.81
2023-03-11T22:09:27.087Z,52.42
2023-03-11T22:11:56.279Z,52.94
2023-03-11T22:14:24.236Z,51.56
2023-03-11T22:16:51.546Z,51.57
2023-03-11T22:19:18.676Z,51.04
2023-03-11T22:21:46.248Z,51.51
2023-03-11T22:24:13.276Z,52.26
2023-03-11T22:26:40.107Z,53.72
2023-03-11T22:29:09.021Z,55.77
2023-03-11T22:31:36.198Z,57.12
2023-03-11T22:34:03.097Z,56.71
2023-03-11T22:36:30.442Z,56.27
2023-03-11T22:38:57.542Z,57.20
2023-03-11T22:41:24.468Z,56.72
2023-03-11T22:43:51.172Z,55.15
2023-03-11T22:46:17.980Z,55.03
2023-03-11T22:48:46.404Z,53.68
2023-03-11T22:51:13.198Z,55.20
2023-03-11T22:53:40.177Z,54.62
2023-03-11T22:56:09.565Z,53.01
2023-03-11T22:58:36.432Z,54.24
2023-03-11T23:01:06.981Z,56.12
2023-03-11T23:03:34.954Z,55.21
2023-03-11T23:06:04.973Z,55.73
2023-03-11T23:08:31.781Z,56.69
2023-03-11T23:11:03.257Z,55.39
2023-03-11T23:13:31.182Z,55.49
2023-03-11T23:16:09.449Z,55.50
2023-03-11T23:18:36.957Z,56.03
2023-03-11T23:21:04.083Z,58.18
2023-03-11T23:23:32.628Z,55.54
2023-03-11T23:26:00.092Z,56.43
2023-03-11T23:28:26.995Z,57.28
2023-03-11T23:30:53.902Z,59.01
2023-03-11T23:33:20.705Z,59.11
2023-03-11T23:35:47.479Z,59.15
2023-03-11T23:38:14.504Z,58.52
2023-03-11T23:40:41.676Z,58.09
2023-03-11T23:43:08.484Z,56.92
2023-03-11T23:45:35.569Z,57.86
2023-03-11T23:48:02.515Z,57.44
2023-03-11T23:50:29.263Z,58.39
2023-03-11T23:52:56.028Z,58.65
2023-03-11T23:55:23.112Z,58.69
2023-03-11T23:57:52.528Z,57.88
